Bydgoszcz Ignacy Jan Paderewski Airport Bydgoszcz PL
ICAO: EPBY
IATA: BZG
Category: Medium
Scheduled Services: Yes

Elevation: 235 ft
TransAlt. 6560 ft.

Airport Communications:
INFO:128.5
BYDGOSZCZ TWR:131

EPBY Zoom In..

If you have problems with the map follow the link
https://www.worldairports.se/pages/airport.php?
ICAO=EPBY

Runways:

(A) RW 08 length 8202 ft width 197 ft
---- / hdg 77

(B) RW 26 length 8202 ft width 197 ft
ILS 109.10 / hdg 257

Location; EPBY
Day. 14 / Time. 09.30 Zulu
* QNH: 1012
* Temperature: 05° c. 41°f.
* Wind from: 230° Speed 06 kn.
Dewpoint: 04° c.
Visibility: 6000 m.
Clouds: Broken 500 ft.

EPBY 140930Z 23006KT 6000 BKN005 05/04 Q1012


Wind From 230°
Speed 06 kn.

 
 
jpsmedia worldairports.se 2019   terms of use